Time;durP1;ratioP1;P1;durP2;ratioP2;P2;SDS_P1;SDS_P2;PMS_P1;PMS_P2;Temp;Humidity;BMP_temperature;BMP_pressure;BME280_temperature;BME280_humidity;BME280_pressure;Samples;Min_cycle;Max_cycle;Signal;HPM_P1;HPM_P2
2023/06/29 00:00:21;;;;;;;20.02;17.75;;;;;;;19.60;100.00;101539.25;4970585;28;20038;-79
2023/06/29 00:02:48;;;;;;;21.45;18.75;;;;;;;19.58;99.94;101541.25;4971159;28;20081;-79
2023/06/29 00:05:14;;;;;;;22.67;18.65;;;;;;;19.56;98.96;101535.22;4974250;28;20039;-79
2023/06/29 00:07:40;;;;;;;22.35;18.35;;;;;;;19.53;98.90;101532.84;4970523;28;20023;-78
2023/06/29 00:10:07;;;;;;;19.13;17.13;;;;;;;19.54;98.72;101524.69;4974888;28;20062;-79
2023/06/29 00:12:33;;;;;;;22.10;17.63;;;;;;;19.57;97.94;101523.53;4972765;28;20042;-79
2023/06/29 00:14:58;;;;;;;19.80;17.05;;;;;;;19.52;97.16;101521.31;4984040;28;20038;-79
2023/06/29 00:17:24;;;;;;;21.27;18.40;;;;;;;19.51;96.30;101514.28;4975667;28;20031;-79
2023/06/29 00:19:49;;;;;;;22.23;17.30;;;;;;;19.51;96.51;101513.47;4988825;28;20026;-79
2023/06/29 00:22:15;;;;;;;21.40;17.10;;;;;;;19.49;96.80;101513.63;4989826;28;20476;-79
2023/06/29 00:24:44;;;;;;;25.27;17.80;;;;;;;19.49;96.17;101510.09;4986718;28;20406;-79
2023/06/29 00:27:13;;;;;;;22.25;16.83;;;;;;;19.48;96.72;101513.78;4982360;28;20015;-79
2023/06/29 00:29:44;;;;;;;21.02;17.20;;;;;;;19.51;95.42;101505.44;4971899;28;20108;-79
2023/06/29 00:32:10;;;;;;;17.92;16.05;;;;;;;19.51;95.35;101503.63;4971433;28;20030;-79
2023/06/29 00:34:35;;;;;;;20.45;17.95;;;;;;;19.48;96.01;101508.44;4971629;28;20154;-79
2023/06/29 00:37:01;;;;;;;22.63;18.40;;;;;;;19.49;95.63;101502.09;4982918;28;20295;-79
2023/06/29 00:39:26;;;;;;;21.55;18.40;;;;;;;19.48;95.69;101505.75;4976218;28;20113;-79
2023/06/29 00:41:53;;;;;;;21.85;18.33;;;;;;;19.46;95.46;101505.09;4973370;28;20019;-79
2023/06/29 00:44:18;;;;;;;22.52;18.30;;;;;;;19.46;96.17;101507.75;4973808;28;20475;-79
2023/06/29 00:46:43;;;;;;;18.80;16.75;;;;;;;19.48;95.42;101508.44;4980605;28;20206;-79
2023/06/29 00:49:10;;;;;;;20.73;17.77;;;;;;;19.48;95.02;101500.41;4978325;28;20034;-79
2023/06/29 00:51:35;;;;;;;23.20;17.50;;;;;;;19.44;94.98;101501.72;4991686;28;20030;-79
2023/06/29 00:54:01;;;;;;;21.60;18.45;;;;;;;19.39;95.86;101503.03;4987849;28;20852;-79
2023/06/29 00:56:30;;;;;;;23.77;17.92;;;;;;;19.42;95.40;101493.88;4969524;28;20027;-79
2023/06/29 00:58:55;;;;;;;21.30;17.50;;;;;;;19.44;95.17;101491.88;4968757;28;20047;-79
2023/06/29 01:01:21;;;;;;;24.13;17.58;;;;;;;19.45;95.26;101492.72;4970959;28;20491;-78
2023/06/29 01:03:46;;;;;;;21.17;18.75;;;;;;;19.44;95.64;101491.06;4971633;28;20046;-79
2023/06/29 01:06:16;;;;;;;23.98;18.20;;;;;;;19.40;96.00;101491.38;4987046;28;20026;-79
2023/06/29 01:08:48;;;;;;;21.77;18.15;;;;;;;19.41;96.51;101486.88;4987087;28;20041;-79
2023/06/29 01:11:15;;;;;;;22.02;18.10;;;;;;;19.43;96.44;101490.22;4983628;28;20181;-79
2023/06/29 01:13:44;;;;;;;26.80;20.08;;;;;;;19.42;96.47;101489.38;4988317;28;20029;-79
2023/06/29 01:16:13;;;;;;;23.55;18.85;;;;;;;19.42;96.74;101489.38;4973207;28;20069;-79
2023/06/29 01:18:43;;;;;;;22.48;18.38;;;;;;;19.44;96.96;101480.38;4983187;28;20030;-79
2023/06/29 01:21:11;;;;;;;29.00;19.67;;;;;;;19.44;97.28;101491.06;4986786;28;20030;-79
2023/06/29 01:23:39;;;;;;;27.30;19.33;;;;;;;19.40;97.54;101482.53;4988235;28;20081;-79
2023/06/29 01:26:08;;;;;;;23.73;19.00;;;;;;;19.43;96.74;101479.53;4974245;28;20109;-79
2023/06/29 01:28:38;;;;;;;25.63;19.40;;;;;;;19.40;97.56;101474.50;4969183;28;20023;-79
2023/06/29 01:31:05;;;;;;;28.10;19.55;;;;;;;19.41;97.54;101469.03;4969771;28;20495;-78
2023/06/29 01:33:31;;;;;;;24.17;19.35;;;;;;;19.38;98.01;101477.34;4962878;28;20411;-78
2023/06/29 01:36:06;;;;;;;25.20;19.60;;;;;;;19.39;97.66;101470.16;4951114;28;20059;-78
2023/06/29 01:38:37;;;;;;;24.83;18.63;;;;;;;19.37;97.78;101470.31;4966237;28;20411;-78
2023/06/29 01:41:06;;;;;;;23.70;19.08;;;;;;;19.38;98.01;101469.34;4950403;28;20435;-79
2023/06/29 01:43:32;;;;;;;25.73;20.10;;;;;;;19.35;98.24;101458.97;4961491;28;20037;-79
2023/06/29 01:45:58;;;;;;;22.23;18.27;;;;;;;19.37;98.01;101464.16;4969335;28;20037;-79
2023/06/29 01:48:25;;;;;;;24.42;18.63;;;;;;;19.34;98.82;101464.47;4968991;28;20031;-79
2023/06/29 01:50:51;;;;;;;22.10;18.17;;;;;;;19.36;98.02;101457.97;4975404;28;20023;-79
2023/06/29 01:53:16;;;;;;;25.95;19.35;;;;;;;19.37;98.29;101461.47;4950815;28;20586;-79
2023/06/29 01:55:42;;;;;;;21.63;18.60;;;;;;;19.36;98.02;101452.63;4961241;28;20014;-79
2023/06/29 01:58:10;;;;;;;23.63;19.00;;;;;;;19.32;99.11;101461.94;4972786;28;20030;-79
2023/06/29 02:00:36;;;;;;;22.88;18.98;;;;;;;19.32;99.15;101461.94;4970396;28;20495;-79
2023/06/29 02:03:01;;;;;;;21.33;18.88;;;;;;;19.32;99.10;101459.28;4969781;28;20136;-79
2023/06/29 02:05:28;;;;;;;20.77;18.15;;;;;;;19.34;98.70;101459.13;4971184;28;20828;-79
2023/06/29 02:07:53;;;;;;;22.38;18.42;;;;;;;19.30;98.38;101458.59;4971100;28;20035;-79
2023/06/29 02:10:19;;;;;;;22.88;19.00;;;;;;;19.31;98.60;101449.59;4990201;28;20060;-79
2023/06/29 02:12:44;;;;;;;21.27;18.45;;;;;;;19.30;98.35;101453.25;4997110;28;20034;-79
2023/06/29 02:15:11;;;;;;;20.52;18.33;;;;;;;19.27;99.30;101447.41;4975737;28;20077;-79
2023/06/29 02:17:36;;;;;;;25.42;19.05;;;;;;;19.29;98.89;101440.09;4967739;28;20034;-79
2023/06/29 02:20:02;;;;;;;25.92;18.83;;;;;;;19.31;98.71;101449.59;4973372;28;20042;-79
2023/06/29 02:22:27;;;;;;;21.73;18.42;;;;;;;19.29;98.33;101445.41;4974079;28;20030;-79
2023/06/29 02:24:52;;;;;;;21.70;18.95;;;;;;;19.28;98.58;101439.25;4966656;28;20031;-79
2023/06/29 02:27:19;;;;;;;20.83;18.73;;;;;;;19.26;98.90;101441.22;4982053;28;20026;-79
2023/06/29 02:29:44;;;;;;;21.13;18.80;;;;;;;19.28;98.45;101439.25;4974358;28;20081;-79
2023/06/29 02:32:10;;;;;;;23.25;20.15;;;;;;;19.28;98.55;101433.06;4976824;28;20053;-79
2023/06/29 02:34:35;;;;;;;24.95;19.98;;;;;;;19.24;98.68;101440.56;4992176;28;20046;-79
2023/06/29 02:37:00;;;;;;;24.02;20.40;;;;;;;19.21;98.72;101422.19;4984474;28;20027;-79
2023/06/29 02:39:26;;;;;;;25.58;19.20;;;;;;;19.22;98.87;101428.34;4982864;28;20058;-79
2023/06/29 02:41:51;;;;;;;26.15;21.35;;;;;;;19.22;99.20;101429.19;4978568;28;20479;-80
2023/06/29 02:44:16;;;;;;;22.95;20.45;;;;;;;19.23;98.76;101425.53;4972908;28;20097;-80
2023/06/29 02:46:42;;;;;;;23.60;20.77;;;;;;;19.24;98.76;101416.53;4987681;28;20053;-80
2023/06/29 02:49:11;;;;;;;27.42;21.45;;;;;;;19.22;99.55;101428.34;4981650;28;20495;-80
2023/06/29 02:51:40;;;;;;;24.60;21.40;;;;;;;19.23;98.85;101422.88;4978166;28;20026;-80
2023/06/29 02:54:05;;;;;;;27.40;22.10;;;;;;;19.24;99.03;101418.38;4994555;28;20033;-80
2023/06/29 02:56:30;;;;;;;31.17;22.17;;;;;;;19.21;99.41;101424.84;4981641;28;20399;-80
2023/06/29 02:58:56;;;;;;;27.83;22.52;;;;;;;19.27;99.38;101421.56;4982727;28;20022;-80
2023/06/29 03:01:21;;;;;;;27.08;22.30;;;;;;;19.28;99.13;101417.91;4972486;28;20057;-80
2023/06/29 03:03:46;;;;;;;30.92;22.33;;;;;;;19.22;99.75;101413.19;4972501;28;20482;-80
2023/06/29 03:06:12;;;;;;;27.08;22.73;;;;;;;19.24;99.85;101416.53;4979544;28;20026;-80
2023/06/29 03:08:38;;;;;;;26.35;22.83;;;;;;;19.22;99.74;101425.69;4965275;28;20046;-80
2023/06/29 03:11:03;;;;;;;26.88;23.38;;;;;;;19.19;100.00;101421.47;4978440;28;20034;-80
2023/06/29 03:13:29;;;;;;;28.40;23.50;;;;;;;19.18;100.00;101419.81;4991503;28;20041;-79
2023/06/29 03:15:59;;;;;;;27.83;24.23;;;;;;;19.20;100.00;101417.81;4991262;28;20058;-79
2023/06/29 03:18:25;;;;;;;28.13;24.67;;;;;;;19.21;100.00;101415.97;4989941;28;20109;-79
2023/06/29 03:20:51;;;;;;;29.75;24.30;;;;;;;19.18;100.00;101413.63;4985180;28;20360;-79
2023/06/29 03:23:16;;;;;;;27.27;24.27;;;;;;;19.19;100.00;101408.13;4973526;28;20076;-79
2023/06/29 03:25:44;;;;;;;33.63;26.92;;;;;;;19.19;100.00;101413.47;4968191;28;20544;-80
2023/06/29 03:28:10;;;;;;;31.45;26.15;;;;;;;19.19;100.00;101410.81;4980627;28;20431;-79
2023/06/29 03:30:39;;;;;;;31.95;26.02;;;;;;;19.21;100.00;101408.84;4980306;28;20024;-79
2023/06/29 03:33:05;;;;;;;34.47;26.65;;;;;;;19.21;100.00;101400.84;4953291;28;20042;-79
2023/06/29 03:35:30;;;;;;;32.22;25.48;;;;;;;19.18;100.00;101406.47;4968023;28;20411;-79
2023/06/29 03:37:57;;;;;;;32.05;25.83;;;;;;;19.15;100.00;101406.78;4987131;28;20042;-79
2023/06/29 03:40:23;;;;;;;29.65;26.20;;;;;;;19.19;100.00;101408.13;4986120;28;20041;-79
2023/06/29 03:42:49;;;;;;;31.88;26.55;;;;;;;19.18;100.00;101401.13;4972975;28;20391;-79
2023/06/29 03:45:15;;;;;;;30.95;25.95;;;;;;;19.16;100.00;101403.13;4971652;28;20042;-79
2023/06/29 03:47:40;;;;;;;30.60;25.92;;;;;;;19.19;100.00;101412.63;4979071;28;20023;-79
2023/06/29 03:50:06;;;;;;;35.83;27.42;;;;;;;19.19;100.00;101402.78;4981485;28;20038;-79
2023/06/29 03:52:32;;;;;;;31.33;26.42;;;;;;;19.20;100.00;101408.97;4973271;28;20381;-79
2023/06/29 03:54:57;;;;;;;36.60;27.00;;;;;;;19.21;100.00;101403.50;4983663;28;20383;-80
2023/06/29 03:57:23;;;;;;;34.15;27.20;;;;;;;19.16;100.00;101400.44;4972682;28;20029;-80
2023/06/29 03:59:48;;;;;;;33.92;26.55;;;;;;;19.18;100.00;101394.94;4981621;28;20422;-79
2023/06/29 04:02:13;;;;;;;34.45;27.73;;;;;;;19.20;100.00;101387.63;4973399;28;20034;-80
2023/06/29 04:04:39;;;;;;;33.13;27.30;;;;;;;19.20;100.00;101393.81;4971937;28;20023;-79
2023/06/29 04:07:04;;;;;;;36.42;27.67;;;;;;;19.21;100.00;101384.84;4985448;28;20116;-79
2023/06/29 04:09:29;;;;;;;32.80;26.48;;;;;;;19.25;100.00;101388.88;4973716;28;20031;-79
2023/06/29 04:11:55;;;;;;;29.42;25.67;;;;;;;19.24;100.00;101386.34;4966098;28;20035;-79
2023/06/29 04:14:20;;;;;;;32.42;27.17;;;;;;;19.26;100.00;101381.69;4970663;28;20063;-79
2023/06/29 04:16:46;;;;;;;33.42;28.05;;;;;;;19.25;100.00;101386.19;4984031;28;20037;-80
2023/06/29 04:19:11;;;;;;;35.63;27.13;;;;;;;19.24;100.00;101389.03;4983995;28;20038;-79
2023/06/29 04:21:36;;;;;;;31.45;27.38;;;;;;;19.24;100.00;101386.34;4978823;28;20023;-79
2023/06/29 04:24:02;;;;;;;33.88;28.98;;;;;;;19.23;100.00;101388.19;4969449;28;20034;-79
2023/06/29 04:26:27;;;;;;;34.83;26.67;;;;;;;19.26;100.00;101385.19;4972518;28;20031;-79
2023/06/29 04:29:00;;;;;;;29.52;25.58;;;;;;;19.27;100.00;101376.19;4982010;28;20139;-79
2023/06/29 04:31:28;;;;;;;31.55;26.35;;;;;;;19.26;100.00;101382.53;4970880;28;20037;-79
2023/06/29 04:33:53;;;;;;;32.67;26.73;;;;;;;19.28;100.00;101383.22;4970202;28;20089;-79
2023/06/29 04:36:19;;;;;;;30.65;26.55;;;;;;;19.29;100.00;101382.22;4983750;28;20034;-79
2023/06/29 04:38:45;;;;;;;34.10;26.80;;;;;;;19.34;100.00;101382.56;4975681;28;20621;-80
2023/06/29 04:41:11;;;;;;;28.88;25.67;;;;;;;19.31;100.00;101380.22;4973112;28;20386;-79
2023/06/29 04:43:36;;;;;;;35.70;27.42;;;;;;;19.33;100.00;101378.22;4965789;28;20031;-79
2023/06/29 04:46:02;;;;;;;31.67;26.90;;;;;;;19.34;100.00;101379.91;4976682;28;20036;-79
2023/06/29 04:48:32;;;;;;;34.70;26.63;;;;;;;19.34;100.00;101379.91;4982790;28;20038;-79
2023/06/29 04:51:04;;;;;;;35.20;27.70;;;;;;;19.34;100.00;101379.06;4986742;28;20057;-79
2023/06/29 04:53:33;;;;;;;30.55;26.55;;;;;;;19.36;100.00;101380.59;4989226;28;20121;-79
2023/06/29 04:55:59;;;;;;;37.75;26.77;;;;;;;19.37;100.00;101379.59;4980936;28;20033;-78
2023/06/29 04:58:25;;;;;;;32.88;27.05;;;;;;;19.39;100.00;101372.25;4969416;28;20468;-78
2023/06/29 05:00:50;;;;;;;34.45;26.02;;;;;;;19.44;100.00;101378.97;4982681;28;20471;-80
2023/06/29 05:03:15;;;;;;;32.88;26.75;;;;;;;19.45;100.00;101380.63;4969698;28;20537;-80
2023/06/29 05:05:44;;;;;;;33.22;25.92;;;;;;;19.45;100.00;101378.78;4984521;28;20053;-79
2023/06/29 05:08:09;;;;;;;34.35;27.55;;;;;;;19.47;100.00;101375.97;4989070;28;20029;-79
2023/06/29 05:10:35;;;;;;;34.50;25.23;;;;;;;19.49;100.00;101371.31;4971381;28;20022;-80
2023/06/29 05:13:00;;;;;;;33.50;26.40;;;;;;;19.51;100.00;101377.31;4981060;28;20026;-79
2023/06/29 05:15:26;;;;;;;31.95;26.08;;;;;;;19.54;100.00;101377.03;4970911;28;20061;-80
2023/06/29 05:17:52;;;;;;;32.05;25.52;;;;;;;19.54;100.00;101369.03;4981539;28;20162;-79
2023/06/29 05:20:27;;;;;;;31.38;26.42;;;;;;;19.54;100.00;101371.69;4983868;28;20117;-79
2023/06/29 05:22:52;;;;;;;32.25;25.05;;;;;;;19.58;100.00;101375.72;4978516;28;20027;-80
2023/06/29 05:25:18;;;;;;;31.45;26.20;;;;;;;19.57;100.00;101369.53;4970005;28;20053;-81
2023/06/29 05:27:43;;;;;;;30.63;26.10;;;;;;;19.57;100.00;101372.22;4980370;28;20086;-80
2023/06/29 05:30:10;;;;;;;31.33;26.45;;;;;;;19.54;100.00;101377.88;4997419;28;20061;-80
2023/06/29 05:32:36;;;;;;;31.00;24.85;;;;;;;19.57;100.00;101374.88;4970652;28;20549;-79
2023/06/29 05:35:02;;;;;;;32.63;25.25;;;;;;;19.60;100.00;101371.06;4974945;28;20472;-79
2023/06/29 05:37:29;;;;;;;31.45;26.00;;;;;;;19.60;100.00;101369.22;4986005;28;20058;-79
2023/06/29 05:39:56;;;;;;;32.88;25.20;;;;;;;19.58;100.00;101365.88;4981649;28;20548;-79
2023/06/29 05:42:22;;;;;;;33.42;26.98;;;;;;;19.63;100.00;101362.75;4967121;28;20062;-79
2023/06/29 05:44:47;;;;;;;30.00;25.80;;;;;;;19.67;99.71;101364.94;4972322;28;20045;-79
2023/06/29 05:47:12;;;;;;;30.98;25.88;;;;;;;19.72;98.86;101359.13;4972938;28;20426;-79
2023/06/29 05:49:38;;;;;;;31.42;26.30;;;;;;;19.76;98.76;101360.47;4982489;28;20022;-79
2023/06/29 05:52:03;;;;;;;31.65;25.88;;;;;;;19.83;98.92;101355.31;4980783;28;20727;-79
2023/06/29 05:54:29;;;;;;;31.98;25.10;;;;;;;19.82;96.99;101367.84;4987902;28;20798;-79
2023/06/29 05:56:54;;;;;;;29.20;25.27;;;;;;;19.86;96.87;101360.34;4973434;28;20031;-79
2023/06/29 05:59:19;;;;;;;31.25;24.98;;;;;;;19.90;95.64;101361.69;4975195;28;20394;-79
2023/06/29 06:01:45;;;;;;;33.17;24.60;;;;;;;19.91;94.60;101360.69;4976421;28;20102;-79
2023/06/29 06:04:10;;;;;;;30.50;24.48;;;;;;;19.87;94.42;101362.84;4973704;28;20046;-79
2023/06/29 06:06:36;;;;;;;29.85;24.35;;;;;;;19.94;94.76;101363.88;4982405;28;20030;-79
2023/06/29 06:09:02;;;;;;;30.52;23.02;;;;;;;20.05;93.51;101356.56;4986226;28;20038;-79
2023/06/29 06:11:28;;;;;;;29.77;23.50;;;;;;;20.09;92.49;101363.25;4979384;28;20034;-79
2023/06/29 06:13:54;;;;;;;27.27;22.83;;;;;;;20.11;91.96;101363.94;4972613;28;20034;-80
2023/06/29 06:16:20;;;;;;;25.15;20.73;;;;;;;20.19;91.39;101358.59;4985033;28;20172;-79
2023/06/29 06:18:46;;;;;;;26.13;21.88;;;;;;;20.25;90.74;101353.44;4973567;28;20080;-79
2023/06/29 06:21:12;;;;;;;24.35;19.95;;;;;;;20.34;90.46;101351.59;4973016;28;20566;-76
2023/06/29 06:23:38;;;;;;;26.13;21.27;;;;;;;20.43;90.08;101355.19;4979516;28;20034;-78
2023/06/29 06:26:04;;;;;;;22.70;19.88;;;;;;;20.52;89.87;101352.34;4987000;28;20033;-77
2023/06/29 06:28:29;;;;;;;23.80;19.70;;;;;;;20.60;88.62;101363.03;4972729;28;20034;-77
2023/06/29 06:30:54;;;;;;;25.92;20.08;;;;;;;20.63;88.27;101352.00;4972265;28;20699;-76
2023/06/29 06:33:20;;;;;;;23.52;19.83;;;;;;;20.64;87.11;101359.03;4962754;28;20043;-77
2023/06/29 06:35:46;;;;;;;22.30;19.90;;;;;;;20.68;86.63;101356.03;4971349;28;20042;-77
2023/06/29 06:38:12;;;;;;;23.85;18.85;;;;;;;20.75;86.30;101357.84;4973224;28;20031;-77
2023/06/29 06:40:37;;;;;;;22.65;19.30;;;;;;;20.77;85.21;101357.69;4983490;28;20034;-77
2023/06/29 06:43:02;;;;;;;25.13;19.23;;;;;;;20.85;84.76;101355.03;4968521;28;20049;-79
2023/06/29 06:45:28;;;;;;;23.70;18.77;;;;;;;20.95;85.08;101350.34;4968292;28;20027;-79
2023/06/29 06:47:53;;;;;;;21.00;18.27;;;;;;;20.96;84.28;101350.16;4988733;28;20194;-79
2023/06/29 06:50:20;;;;;;;27.65;19.10;;;;;;;21.03;83.90;101347.66;4971376;28;20086;-79
2023/06/29 06:52:46;;;;;;;21.20;18.50;;;;;;;21.08;84.24;101350.66;4970825;28;20079;-79
2023/06/29 06:55:12;;;;;;;23.40;18.35;;;;;;;21.13;82.07;101353.66;4973980;28;20062;-79
2023/06/29 06:57:37;;;;;;;23.13;18.58;;;;;;;21.24;82.55;101350.69;4972488;28;20085;-80
2023/06/29 07:00:03;;;;;;;21.25;19.02;;;;;;;21.35;81.19;101345.97;4972231;28;20483;-79
2023/06/29 07:02:28;;;;;;;24.15;18.63;;;;;;;21.43;81.59;101351.28;4971252;28;20498;-80
2023/06/29 07:04:54;;;;;;;22.63;18.73;;;;;;;21.58;80.42;101345.03;4971951;28;20026;-79
2023/06/29 07:07:19;;;;;;;21.95;18.77;;;;;;;21.73;77.42;101355.88;4971899;28;20399;-80
2023/06/29 07:09:44;;;;;;;26.10;20.38;;;;;;;21.76;76.86;101354.69;4967827;28;20033;-79
2023/06/29 07:12:10;;;;;;;23.45;19.60;;;;;;;21.78;76.54;101353.50;4972298;28;20029;-80
2023/06/29 07:14:36;;;;;;;23.67;20.42;;;;;;;21.94;75.26;101347.22;4957148;28;20086;-79
2023/06/29 07:17:01;;;;;;;24.50;19.27;;;;;;;22.14;74.53;101356.53;4971668;28;20065;-80
2023/06/29 07:19:27;;;;;;;25.85;20.48;;;;;;;22.29;73.95;101351.25;4965702;28;20479;-80
2023/06/29 07:21:52;;;;;;;23.98;20.55;;;;;;;22.48;71.88;101353.47;4970996;28;20031;-80
2023/06/29 07:24:19;;;;;;;24.75;20.33;;;;;;;22.62;70.64;101351.00;4971364;28;20027;-80
2023/06/29 07:26:45;;;;;;;26.67;20.35;;;;;;;22.74;69.99;101346.88;4957017;28;20033;-80
2023/06/29 07:29:10;;;;;;;26.48;19.83;;;;;;;22.80;68.65;101351.53;4965863;28;20495;-79
2023/06/29 07:31:36;;;;;;;26.40;21.08;;;;;;;22.78;68.24;101353.56;4961897;28;20462;-80
2023/06/29 07:34:01;;;;;;;23.95;20.75;;;;;;;22.80;68.84;101330.06;4971012;28;20059;-76
2023/06/29 07:36:27;;;;;;;24.23;20.30;;;;;;;22.77;68.67;101338.47;4973669;28;20034;-79
2023/06/29 07:38:53;;;;;;;23.60;20.67;;;;;;;22.67;68.13;101337.88;4974264;28;20439;-80
2023/06/29 07:41:19;;;;;;;26.50;21.15;;;;;;;22.68;67.68;101345.75;4970522;28;20023;-80
2023/06/29 07:43:54;;;;;;;27.17;21.38;;;;;;;22.81;68.52;101342.47;4971658;28;20034;-80
2023/06/29 07:46:21;;;;;;;25.88;21.25;;;;;;;22.91;66.96;101337.72;4977293;28;20122;-80
2023/06/29 07:48:48;;;;;;;23.90;19.50;;;;;;;23.07;66.47;101337.56;4983260;28;20035;-79
2023/06/29 07:51:14;;;;;;;25.13;21.58;;;;;;;23.11;64.55;101341.53;4972047;28;20624;-80
2023/06/29 07:53:40;;;;;;;24.48;20.45;;;;;;;23.09;66.54;101332.81;4975603;28;20053;-80
2023/06/29 07:56:05;;;;;;;25.25;21.40;;;;;;;23.14;64.28;101335.78;4977158;28;20495;-80
2023/06/29 07:58:31;;;;;;;24.55;20.88;;;;;;;23.10;64.30;101337.19;4969968;28;20027;-77
2023/06/29 08:00:57;;;;;;;25.55;20.73;;;;;;;23.10;64.78;101334.50;4971934;28;20050;-78
2023/06/29 08:03:24;;;;;;;24.58;21.38;;;;;;;22.97;64.39;101334.31;4974696;28;20023;-78
2023/06/29 08:05:52;;;;;;;22.73;19.17;;;;;;;22.88;66.05;101327.34;4973953;28;20033;-78
2023/06/29 08:08:17;;;;;;;23.15;20.10;;;;;;;22.81;65.85;101329.94;4976757;28;20023;-78
2023/06/29 08:10:43;;;;;;;23.20;20.65;;;;;;;22.82;65.89;101325.41;4984405;28;20045;-78
2023/06/29 08:13:08;;;;;;;24.52;19.83;;;;;;;22.72;64.94;101320.22;4980130;28;20027;-78
2023/06/29 08:15:34;;;;;;;22.73;20.08;;;;;;;22.75;66.35;101319.03;4977553;28;20027;-78
2023/06/29 08:17:59;;;;;;;25.38;20.95;;;;;;;22.92;66.48;101325.13;4972067;28;20522;-77
2023/06/29 08:20:24;;;;;;;24.65;20.90;;;;;;;23.02;65.15;101325.69;4984908;28;20034;-77
2023/06/29 08:22:50;;;;;;;24.95;21.58;;;;;;;23.12;66.52;101327.09;4980758;28;20031;-78
2023/06/29 08:25:15;;;;;;;23.50;20.63;;;;;;;23.22;65.54;101328.69;4969766;28;20045;-78
2023/06/29 08:27:41;;;;;;;25.55;21.75;;;;;;;23.30;63.94;101328.59;4975528;28;20109;-77
2023/06/29 08:30:08;;;;;;;24.25;21.02;;;;;;;23.37;65.42;101329.53;4974533;28;20084;-79
2023/06/29 08:32:34;;;;;;;25.65;21.65;;;;;;;23.31;63.68;101330.28;4967670;28;20022;-77
2023/06/29 08:34:59;;;;;;;24.77;20.95;;;;;;;23.16;63.29;101332.09;4972351;28;20178;-77
2023/06/29 08:37:24;;;;;;;26.92;23.08;;;;;;;22.97;63.87;101330.78;4980951;28;20078;-77
2023/06/29 08:39:50;;;;;;;25.25;21.63;;;;;;;23.06;65.03;101330.50;4975999;28;20089;-77
2023/06/29 08:42:15;;;;;;;26.63;21.13;;;;;;;23.13;64.61;101328.75;4970709;28;20101;-77
2023/06/29 08:44:41;;;;;;;30.00;21.80;;;;;;;23.30;65.26;101328.59;4970723;28;20035;-78
2023/06/29 08:47:07;;;;;;;27.38;22.10;;;;;;;23.48;63.50;101328.22;4951027;28;20019;-77
2023/06/29 08:49:38;;;;;;;26.13;21.08;;;;;;;23.82;63.13;101324.97;4976277;28;20030;-77
2023/06/29 08:52:05;;;;;;;26.13;22.20;;;;;;;24.05;61.32;101323.81;4990702;28;20190;-76
2023/06/29 08:54:31;;;;;;;25.40;21.33;;;;;;;24.08;60.87;101321.75;4976034;28;20033;-77
2023/06/29 08:57:00;;;;;;;26.95;22.17;;;;;;;23.89;59.78;101320.50;4972250;28;20475;-77
2023/06/29 08:59:26;;;;;;;23.48;20.48;;;;;;;24.03;59.82;101319.66;4979294;28;20490;-77
2023/06/29 09:01:52;;;;;;;23.98;20.95;;;;;;;24.35;59.53;101313.78;4965740;28;20483;-77
2023/06/29 09:04:17;;;;;;;26.15;22.88;;;;;;;24.53;58.89;101310.66;4974089;28;20030;-78
2023/06/29 09:06:43;;;;;;;25.98;22.13;;;;;;;24.61;58.49;101312.38;4987785;28;20076;-78
2023/06/29 09:09:09;;;;;;;28.60;22.92;;;;;;;24.67;58.92;101311.59;4974907;28;20022;-74
2023/06/29 09:11:35;;;;;;;26.02;22.55;;;;;;;24.59;58.97;101309.06;4968002;28;20364;-78
2023/06/29 09:14:10;;;;;;;25.90;21.85;;;;;;;24.48;59.57;101317.66;4979984;28;20440;-78
2023/06/29 09:16:35;;;;;;;24.48;21.30;;;;;;;24.34;58.27;101311.28;4975413;28;20518;-78
2023/06/29 09:19:03;;;;;;;24.60;20.67;;;;;;;24.16;60.30;101314.41;4974306;28;20054;-78
2023/06/29 09:21:29;;;;;;;24.77;21.27;;;;;;;24.08;58.98;101306.47;4975438;28;20056;-77
2023/06/29 09:23:58;;;;;;;24.40;20.73;;;;;;;24.04;60.44;101315.94;4976050;28;20434;-77
2023/06/29 09:26:26;;;;;;;23.55;21.13;;;;;;;23.98;60.14;101313.97;4981197;28;20026;-77
2023/06/29 09:28:56;;;;;;;25.75;21.55;;;;;;;23.82;59.38;101316.91;4975992;28;20356;-77
2023/06/29 09:31:21;;;;;;;27.45;21.50;;;;;;;23.89;60.80;101307.91;4974617;28;20030;-78
2023/06/29 09:33:46;;;;;;;25.83;22.42;;;;;;;23.83;60.78;101310.50;4984008;28;20034;-75
2023/06/29 09:36:12;;;;;;;25.05;22.35;;;;;;;23.83;60.42;101305.13;4989740;28;20030;-77
2023/06/29 09:38:38;;;;;;;28.50;22.88;;;;;;;23.75;60.04;101308.78;4977397;28;20082;-75
2023/06/29 09:41:05;;;;;;;27.10;22.17;;;;;;;23.64;60.97;101312.78;4974569;28;20031;-78
2023/06/29 09:43:30;;;;;;;25.42;22.10;;;;;;;23.59;61.20;101312.47;4975533;28;20031;-77
2023/06/29 09:46:08;;;;;;;25.70;22.90;;;;;;;23.55;61.99;101316.56;4982449;28;20027;-77
2023/06/29 09:48:44;;;;;;;25.73;22.85;;;;;;;23.48;61.70;101312.94;4974929;28;20030;-77
2023/06/29 09:51:10;;;;;;;29.52;23.65;;;;;;;23.58;62.06;101310.81;4973566;28;20418;-77
2023/06/29 09:53:35;;;;;;;27.45;23.52;;;;;;;23.68;62.79;101311.38;4967355;28;20027;-76
2023/06/29 09:56:02;;;;;;;34.33;25.17;;;;;;;23.78;61.29;101312.94;4964289;28;20966;-78
2023/06/29 09:58:29;;;;;;;34.85;24.83;;;;;;;23.93;60.19;101313.72;4973775;28;20035;-77
2023/06/29 10:00:58;;;;;;;29.40;24.35;;;;;;;23.98;59.60;101316.66;4978970;28;20022;-77
2023/06/29 10:03:25;;;;;;;30.10;23.73;;;;;;;24.03;59.73;101308.91;4976202;28;20042;-78
2023/06/29 10:05:56;;;;;;;28.40;23.80;;;;;;;24.09;59.61;101318.88;4968812;28;20019;-77
2023/06/29 10:08:24;;;;;;;25.83;22.88;;;;;;;24.09;60.18;101302.75;4977187;28;20019;-75
2023/06/29 10:10:56;;;;;;;26.92;22.67;;;;;;;24.16;61.23;101309.03;4972599;28;20480;-78
2023/06/29 10:13:23;;;;;;;38.10;25.63;;;;;;;24.10;60.59;101309.78;4985700;28;20525;-77
2023/06/29 10:15:51;;;;;;;28.85;24.63;;;;;;;24.12;61.65;101310.44;4991614;28;20027;-78
2023/06/29 10:18:27;;;;;;;28.42;23.95;;;;;;;23.98;60.24;101311.28;4992970;28;20034;-78
2023/06/29 10:20:52;;;;;;;27.67;24.40;;;;;;;23.88;59.54;101308.91;4992321;28;20077;-76
2023/06/29 10:23:21;;;;;;;33.75;25.20;;;;;;;23.85;59.92;101316.53;4966483;28;20455;-76
2023/06/29 10:25:49;;;;;;;32.83;26.25;;;;;;;23.78;59.46;101310.25;4982755;28;20027;-76
2023/06/29 10:28:18;;;;;;;30.83;26.00;;;;;;;23.62;59.70;101312.13;4991956;28;20026;-77
2023/06/29 10:30:45;;;;;;;32.92;25.38;;;;;;;23.58;59.53;101316.19;4993013;28;20468;-78
2023/06/29 10:33:11;;;;;;;30.20;25.17;;;;;;;23.41;60.26;101320.06;4990140;28;20038;-76
2023/06/29 10:35:40;;;;;;;30.55;25.30;;;;;;;23.39;60.17;101311.38;4990461;28;20472;-77
2023/06/29 10:38:14;;;;;;;32.90;26.48;;;;;;;23.40;60.33;101313.03;4986347;28;20129;-77
2023/06/29 10:40:47;;;;;;;29.55;25.50;;;;;;;23.51;60.61;101320.63;4978062;28;20506;-79
2023/06/29 10:43:13;;;;;;;31.35;25.80;;;;;;;23.59;61.28;101311.66;4992777;28;20517;-78
2023/06/29 10:45:39;;;;;;;31.27;26.05;;;;;;;23.59;60.08;101311.66;4983845;28;20033;-78
2023/06/29 10:48:06;;;;;;;31.20;25.70;;;;;;;23.62;61.35;101306.75;4983711;28;20093;-78
2023/06/29 10:50:32;;;;;;;31.17;26.70;;;;;;;23.54;60.63;101303.28;4988921;28;20023;-79
2023/06/29 10:52:58;;;;;;;30.80;25.38;;;;;;;23.65;62.60;101302.88;4983214;28;20030;-77
2023/06/29 10:55:28;;;;;;;33.45;27.15;;;;;;;23.64;62.06;101304.72;4982789;28;20030;-78
2023/06/29 10:58:17;;;;;;;30.83;26.58;;;;;;;23.80;63.02;101308.19;4974320;28;20033;-80
2023/06/29 11:00:43;;;;;;;32.63;26.77;;;;;;;23.86;63.91;101307.44;4988321;28;20026;-77
2023/06/29 11:03:12;;;;;;;32.63;26.95;;;;;;;23.72;62.88;101301.91;4974385;28;20387;-80